sensor_id;sensor_type;location;lat;lon;timestamp;P1;durP1;ratioP1;P2;durP2;ratioP2
69712;SDS011;56980;51.826;4.424;2022-11-20T00:01:20;16.10;;;6.63;;
69712;SDS011;56980;51.826;4.424;2022-11-20T00:03:48;13.13;;;6.28;;
69712;SDS011;56980;51.826;4.424;2022-11-20T00:06:17;12.35;;;6.50;;
69712;SDS011;56980;51.826;4.424;2022-11-20T00:08:43;17.50;;;7.00;;
69712;SDS011;56980;51.826;4.424;2022-11-20T00:11:15;12.52;;;6.82;;
69712;SDS011;56980;51.826;4.424;2022-11-20T00:13:43;13.38;;;6.68;;
69712;SDS011;56980;51.826;4.424;2022-11-20T00:16:10;15.98;;;7.50;;
69712;SDS011;56980;51.826;4.424;2022-11-20T00:18:37;14.48;;;7.38;;
69712;SDS011;56980;51.826;4.424;2022-11-20T00:23:29;14.15;;;7.05;;
69712;SDS011;56980;51.826;4.424;2022-11-20T00:25:55;13.90;;;7.05;;
69712;SDS011;56980;51.826;4.424;2022-11-20T00:28:20;11.60;;;6.40;;
69712;SDS011;56980;51.826;4.424;2022-11-20T00:30:46;14.17;;;6.90;;
69712;SDS011;56980;51.826;4.424;2022-11-20T00:33:11;16.77;;;7.27;;
69712;SDS011;56980;51.826;4.424;2022-11-20T00:35:37;13.00;;;7.22;;
69712;SDS011;56980;51.826;4.424;2022-11-20T00:38:02;16.70;;;7.63;;
69712;SDS011;56980;51.826;4.424;2022-11-20T00:40:28;13.67;;;6.80;;
69712;SDS011;56980;51.826;4.424;2022-11-20T00:42:53;17.10;;;7.40;;
69712;SDS011;56980;51.826;4.424;2022-11-20T00:45:19;15.07;;;7.10;;
69712;SDS011;56980;51.826;4.424;2022-11-20T00:47:44;14.63;;;7.07;;
69712;SDS011;56980;51.826;4.424;2022-11-20T00:50:10;14.20;;;7.33;;
69712;SDS011;56980;51.826;4.424;2022-11-20T00:52:35;16.85;;;8.07;;
69712;SDS011;56980;51.826;4.424;2022-11-20T00:55:00;12.68;;;7.18;;
69712;SDS011;56980;51.826;4.424;2022-11-20T00:57:26;19.70;;;7.70;;
69712;SDS011;56980;51.826;4.424;2022-11-20T00:59:51;15.97;;;8.17;;
69712;SDS011;56980;51.826;4.424;2022-11-20T01:02:16;14.27;;;8.27;;
69712;SDS011;56980;51.826;4.424;2022-11-20T01:08:03;13.10;;;7.13;;
69712;SDS011;56980;51.826;4.424;2022-11-20T01:13:51;13.98;;;6.70;;
69712;SDS011;56980;51.826;4.424;2022-11-20T01:19:40;13.25;;;6.18;;
69712;SDS011;56980;51.826;4.424;2022-11-20T01:22:05;20.00;;;7.03;;
69712;SDS011;56980;51.826;4.424;2022-11-20T01:24:30;14.50;;;7.33;;
69712;SDS011;56980;51.826;4.424;2022-11-20T01:26:56;13.23;;;7.10;;
69712;SDS011;56980;51.826;4.424;2022-11-20T01:29:22;15.38;;;7.88;;
69712;SDS011;56980;51.826;4.424;2022-11-20T01:31:49;12.50;;;6.50;;
69712;SDS011;56980;51.826;4.424;2022-11-20T01:34:16;16.25;;;6.95;;
69712;SDS011;56980;51.826;4.424;2022-11-20T01:36:43;12.75;;;6.53;;
69712;SDS011;56980;51.826;4.424;2022-11-20T01:41:40;15.57;;;6.90;;
69712;SDS011;56980;51.826;4.424;2022-11-20T01:47:40;14.80;;;7.22;;
69712;SDS011;56980;51.826;4.424;2022-11-20T01:52:49;16.60;;;7.40;;
69712;SDS011;56980;51.826;4.424;2022-11-20T01:55:30;12.85;;;6.93;;
69712;SDS011;56980;51.826;4.424;2022-11-20T01:57:59;15.80;;;7.50;;
69712;SDS011;56980;51.826;4.424;2022-11-20T02:00:26;14.13;;;6.95;;
69712;SDS011;56980;51.826;4.424;2022-11-20T02:02:52;15.13;;;7.33;;
69712;SDS011;56980;51.826;4.424;2022-11-20T02:05:25;13.90;;;7.20;;
69712;SDS011;56980;51.826;4.424;2022-11-20T02:07:54;13.48;;;7.15;;
69712;SDS011;56980;51.826;4.424;2022-11-20T02:10:22;19.08;;;7.78;;
69712;SDS011;56980;51.826;4.424;2022-11-20T02:12:48;14.40;;;7.22;;
69712;SDS011;56980;51.826;4.424;2022-11-20T02:15:32;15.38;;;7.97;;
69712;SDS011;56980;51.826;4.424;2022-11-20T02:17:58;12.50;;;7.15;;
69712;SDS011;56980;51.826;4.424;2022-11-20T02:20:24;14.03;;;7.00;;
69712;SDS011;56980;51.826;4.424;2022-11-20T02:22:52;14.20;;;7.03;;
69712;SDS011;56980;51.826;4.424;2022-11-20T02:25:22;15.80;;;7.35;;
69712;SDS011;56980;51.826;4.424;2022-11-20T02:27:50;13.95;;;6.82;;
69712;SDS011;56980;51.826;4.424;2022-11-20T02:30:18;13.23;;;7.55;;
69712;SDS011;56980;51.826;4.424;2022-11-20T02:32:43;13.83;;;7.00;;
69712;SDS011;56980;51.826;4.424;2022-11-20T02:35:54;15.63;;;7.47;;
69712;SDS011;56980;51.826;4.424;2022-11-20T02:37:56;15.80;;;7.40;;
69712;SDS011;56980;51.826;4.424;2022-11-20T02:40:25;16.23;;;7.10;;
69712;SDS011;56980;51.826;4.424;2022-11-20T02:42:55;16.07;;;7.77;;
69712;SDS011;56980;51.826;4.424;2022-11-20T02:45:21;16.60;;;7.47;;
69712;SDS011;56980;51.826;4.424;2022-11-20T02:47:47;14.88;;;7.43;;
69712;SDS011;56980;51.826;4.424;2022-11-20T02:50:13;15.52;;;7.28;;
69712;SDS011;56980;51.826;4.424;2022-11-20T02:52:39;13.37;;;6.87;;
69712;SDS011;56980;51.826;4.424;2022-11-20T02:55:05;16.77;;;8.03;;
69712;SDS011;56980;51.826;4.424;2022-11-20T02:57:30;14.68;;;7.90;;
69712;SDS011;56980;51.826;4.424;2022-11-20T02:59:59;14.73;;;7.55;;
69712;SDS011;56980;51.826;4.424;2022-11-20T03:02:24;13.97;;;7.53;;
69712;SDS011;56980;51.826;4.424;2022-11-20T03:04:49;14.13;;;7.60;;
69712;SDS011;56980;51.826;4.424;2022-11-20T03:07:15;14.67;;;8.00;;
69712;SDS011;56980;51.826;4.424;2022-11-20T03:09:40;16.92;;;7.43;;
69712;SDS011;56980;51.826;4.424;2022-11-20T03:12:06;13.03;;;7.10;;
69712;SDS011;56980;51.826;4.424;2022-11-20T03:14:34;14.65;;;7.43;;
69712;SDS011;56980;51.826;4.424;2022-11-20T03:17:02;16.67;;;7.77;;
69712;SDS011;56980;51.826;4.424;2022-11-20T03:19:27;17.92;;;7.65;;
69712;SDS011;56980;51.826;4.424;2022-11-20T03:21:53;13.83;;;6.77;;
69712;SDS011;56980;51.826;4.424;2022-11-20T03:24:21;14.80;;;7.13;;
69712;SDS011;56980;51.826;4.424;2022-11-20T03:26:46;18.60;;;7.73;;
69712;SDS011;56980;51.826;4.424;2022-11-20T03:29:12;14.23;;;7.77;;
69712;SDS011;56980;51.826;4.424;2022-11-20T03:31:38;16.67;;;7.40;;
69712;SDS011;56980;51.826;4.424;2022-11-20T03:34:05;17.07;;;7.87;;
69712;SDS011;56980;51.826;4.424;2022-11-20T03:36:37;15.43;;;7.55;;
69712;SDS011;56980;51.826;4.424;2022-11-20T03:39:04;15.32;;;7.97;;
69712;SDS011;56980;51.826;4.424;2022-11-20T03:41:30;14.37;;;7.87;;
69712;SDS011;56980;51.826;4.424;2022-11-20T03:43:57;15.93;;;7.22;;
69712;SDS011;56980;51.826;4.424;2022-11-20T03:46:24;13.68;;;7.53;;
69712;SDS011;56980;51.826;4.424;2022-11-20T03:48:50;14.43;;;7.28;;
69712;SDS011;56980;51.826;4.424;2022-11-20T03:51:17;15.57;;;8.07;;
69712;SDS011;56980;51.826;4.424;2022-11-20T03:53:44;15.93;;;7.97;;
69712;SDS011;56980;51.826;4.424;2022-11-20T03:56:11;13.52;;;6.95;;
69712;SDS011;56980;51.826;4.424;2022-11-20T03:58:38;15.93;;;7.95;;
69712;SDS011;56980;51.826;4.424;2022-11-20T04:01:06;15.10;;;7.83;;
69712;SDS011;56980;51.826;4.424;2022-11-20T04:03:33;17.20;;;8.50;;
69712;SDS011;56980;51.826;4.424;2022-11-20T04:06:04;15.23;;;8.10;;
69712;SDS011;56980;51.826;4.424;2022-11-20T04:08:34;15.77;;;7.30;;
69712;SDS011;56980;51.826;4.424;2022-11-20T04:11:13;16.03;;;7.13;;
69712;SDS011;56980;51.826;4.424;2022-11-20T04:14:02;16.35;;;7.25;;
69712;SDS011;56980;51.826;4.424;2022-11-20T04:16:33;16.02;;;7.18;;
69712;SDS011;56980;51.826;4.424;2022-11-20T04:19:01;15.02;;;7.53;;
69712;SDS011;56980;51.826;4.424;2022-11-20T04:21:28;17.63;;;7.90;;
69712;SDS011;56980;51.826;4.424;2022-11-20T04:23:57;17.33;;;7.40;;
69712;SDS011;56980;51.826;4.424;2022-11-20T04:26:24;15.65;;;7.32;;
69712;SDS011;56980;51.826;4.424;2022-11-20T04:28:51;17.87;;;7.67;;
69712;SDS011;56980;51.826;4.424;2022-11-20T04:31:18;14.48;;;7.50;;
69712;SDS011;56980;51.826;4.424;2022-11-20T04:33:45;16.48;;;8.20;;
69712;SDS011;56980;51.826;4.424;2022-11-20T04:36:13;15.43;;;7.90;;
69712;SDS011;56980;51.826;4.424;2022-11-20T04:38:43;15.70;;;7.47;;
69712;SDS011;56980;51.826;4.424;2022-11-20T04:41:12;16.70;;;8.70;;
69712;SDS011;56980;51.826;4.424;2022-11-20T04:43:40;13.60;;;7.80;;
69712;SDS011;56980;51.826;4.424;2022-11-20T04:46:06;15.48;;;7.68;;
69712;SDS011;56980;51.826;4.424;2022-11-20T04:48:32;15.10;;;7.65;;
69712;SDS011;56980;51.826;4.424;2022-11-20T04:51:02;16.63;;;7.50;;
69712;SDS011;56980;51.826;4.424;2022-11-20T04:53:31;13.88;;;7.85;;
69712;SDS011;56980;51.826;4.424;2022-11-20T04:56:00;15.35;;;7.82;;
69712;SDS011;56980;51.826;4.424;2022-11-20T04:58:33;18.23;;;8.57;;
69712;SDS011;56980;51.826;4.424;2022-11-20T05:01:05;13.57;;;7.20;;
69712;SDS011;56980;51.826;4.424;2022-11-20T05:03:39;15.63;;;8.27;;
69712;SDS011;56980;51.826;4.424;2022-11-20T05:06:06;14.82;;;8.13;;
69712;SDS011;56980;51.826;4.424;2022-11-20T05:08:33;15.98;;;8.20;;
69712;SDS011;56980;51.826;4.424;2022-11-20T05:11:14;15.82;;;7.35;;
69712;SDS011;56980;51.826;4.424;2022-11-20T05:13:46;16.05;;;7.90;;
69712;SDS011;56980;51.826;4.424;2022-11-20T05:16:15;14.60;;;7.33;;
69712;SDS011;56980;51.826;4.424;2022-11-20T05:18:46;15.02;;;7.32;;
69712;SDS011;56980;51.826;4.424;2022-11-20T05:21:13;14.25;;;7.38;;
69712;SDS011;56980;51.826;4.424;2022-11-20T05:23:42;14.15;;;7.85;;
69712;SDS011;56980;51.826;4.424;2022-11-20T05:26:12;16.42;;;7.53;;
69712;SDS011;56980;51.826;4.424;2022-11-20T05:28:39;15.50;;;8.00;;
69712;SDS011;56980;51.826;4.424;2022-11-20T05:31:12;15.50;;;7.63;;
69712;SDS011;56980;51.826;4.424;2022-11-20T05:34:07;13.35;;;7.55;;
69712;SDS011;56980;51.826;4.424;2022-11-20T05:36:40;17.08;;;7.70;;
69712;SDS011;56980;51.826;4.424;2022-11-20T05:39:06;15.33;;;7.80;;
69712;SDS011;56980;51.826;4.424;2022-11-20T05:41:37;12.93;;;6.97;;
69712;SDS011;56980;51.826;4.424;2022-11-20T05:44:06;15.37;;;7.87;;
69712;SDS011;56980;51.826;4.424;2022-11-20T05:46:32;15.45;;;7.68;;
69712;SDS011;56980;51.826;4.424;2022-11-20T05:48:58;16.02;;;7.97;;
69712;SDS011;56980;51.826;4.424;2022-11-20T05:51:26;14.32;;;7.20;;
69712;SDS011;56980;51.826;4.424;2022-11-20T05:53:52;16.50;;;8.32;;
69712;SDS011;56980;51.826;4.424;2022-11-20T05:56:21;16.20;;;8.02;;
69712;SDS011;56980;51.826;4.424;2022-11-20T05:58:47;16.33;;;8.95;;
69712;SDS011;56980;51.826;4.424;2022-11-20T06:03:47;17.05;;;8.27;;
69712;SDS011;56980;51.826;4.424;2022-11-20T06:06:18;16.30;;;7.63;;
69712;SDS011;56980;51.826;4.424;2022-11-20T23:18:09;4.45;;;1.70;;
69712;SDS011;56980;51.826;4.424;2022-11-20T23:20:37;3.63;;;1.00;;
69712;SDS011;56980;51.826;4.424;2022-11-20T23:23:02;9.37;;;1.20;;
69712;SDS011;56980;51.826;4.424;2022-11-20T23:25:28;5.27;;;1.00;;
69712;SDS011;56980;51.826;4.424;2022-11-20T23:27:53;0.90;;;0.60;;
69712;SDS011;56980;51.826;4.424;2022-11-20T23:30:19;4.43;;;0.80;;
